LFKCLFKJ

Guest
Details From LFKC - St Catherine
To LFKJ - Napoleon Bonaparte
Flight Number -
Tags generated
Created
Modified
Stats Distance 37 nm / 68 km
Max Altitude 2,700 ft / 823 m
Waypoints 3
Social Downloads 1
Likes 0
Share VATSIM

Download

Looking for another format? Having issues loading an existing format? Contact us
Advertisement - Login to hide

Notes

Basic altitude profile: - Ascent Rate: 500ft/min - Ascent Speed: 80kts - Cruise Altitude: 2000ft - Cruise Speed: 115kts - Descent Rate: 500ft/min - Descent Speed: 90kts Options: - Use NATs: yes - Use PACOTS: yes - Use low airways: yes - Use high airways: yes

Route

LFKC VICCO LFKJ

ID Type Via Altitude Latitude Longitude Leg Dist Tot Dist Heading (true) Name
O LFKC APT - 0 ft / 0 m 42.53076˚ 8.79292˚ - 0 nm - St Catherine
VICCO FIX - 2,700 ft / 823 m 42.13944˚ 8.81583˚ 23 nm 23 nm 178° / 178° -
O LFKJ APT - 0 ft / 0 m 41.92289˚ 8.79959˚ 13 nm 36 nm 183° / 183° Napoleon Bonaparte

Altitude Profile

Advertisement - Login to hide

LFKC

Details ICAO LFKC (CLY)
Name St Catherine
Region France
Timezone Europe/Paris (UTC+2.0)
Stats Elevation 208 ft / 63 m (AMSL)
Location 42.530762° 8.792925°
Runways 1
Magnetic Variation 2.390° E

METAR

LFKC 240600Z AUTO 16002KT CAVOK 18/14 Q1018 NOSIG

Decode

TAF

TAF LFKC 240200Z 2403/2503 VRB05KT 9999 FEW030 TX22/2413Z TN13/2404Z= TAF LFMD 240200Z 2403/2503 VRB03KT CAVOK PROB30 TEMPO 2405/2407 4000 BR OVC006 BECMG 2407/2409 10010KT BECMG 2414/2416 18010KT BECMG 2420/2422 09010KT TEMPO 2500/2503 BKN006

Decode

Departure Runways

ID Width Length Bearing (true) Bearing (mag) Surface Threshold Offset Overrun Length
18 131 ft / 40 m 7,596 ft / 2,315 m 179.60° 177.21° Concrete 0 ft / 0 m 0 ft / 0 m
36 131 ft / 40 m 7,596 ft / 2,315 m 359.60° 357.21° Concrete 656 ft / 200 m 0 ft / 0 m

LFKJ

Details ICAO LFKJ (AJA)
Name Napoleon Bonaparte
Region France
Timezone Europe/Paris (UTC+2.0)
Stats Elevation 18 ft / 5 m (AMSL)
Location 41.922886° 8.799587°
Runways 2
Magnetic Variation 2.377° E

METAR

LFKJ 240600Z AUTO 02003KT CAVOK 17/13 Q1019 NOSIG

Decode

TAF

TAF LFKJ 240200Z 2403/2503 VRB05KT 9999 FEW030 TEMPO 2409/2413 22010KT

Decode

Destination Runways

ID Width Length Bearing (true) Bearing (mag) Surface Threshold Offset Overrun Length
02 180 ft / 55 m 7,899 ft / 2,408 m 24.94° 22.56° Asphalt 0 ft / 0 m 164 ft / 50 m
10 98 ft / 30 m 3,447 ft / 1,051 m 94.35° 91.97° Concrete 0 ft / 0 m 164 ft / 50 m
20 180 ft / 55 m 7,899 ft / 2,408 m 204.95° 202.57° Asphalt 745 ft / 227 m 230 ft / 70 m
28 98 ft / 30 m 3,447 ft / 1,051 m 274.36° 271.98° Concrete 213 ft / 65 m 0 ft / 0 m

Approach Navaids

Runway Type Ident Frequency Range Bearing (true) Bearing (mag) Slope Elevation
02 Localiser AC 110.30 MHz 27 nm / 50 km 24.92° 22.54° - 18 ft / 5 m (AMSL)
02 Glidescope AC 110.30 MHz 27 nm / 50 km 24.92° 22.54° 3.00° 18 ft / 5 m (AMSL)
02 DME AC 110.30 MHz 27 nm / 50 km - - - 18 ft / 5 m (AMSL)

Popular Alternatives